Airfield :
LOGIN :

Register | Disclaimer

   EN    FR    IT 

 










Legend :    VFR   Marginal VFR   IFR   Intensive IFR   Very Intensive IFR
Visi :
Ceiling :
>= 8 km
>= 3000ft
5 to 8 km
1000 to 3000 ft
1500m to 5 km
500 to 1000 ft
800 to 1500m
200 to 500 ft
< 800m
< 200 ft
Symbols :   Thunderstorms  Fog  Heavy snow  Heavy precipitations  Wind > 20 kt
SIGMETs :     Misc.  Thunderstorms  Icing  Turbulence  Mountain Waves  Volcanic Ashes







- Airport Elevation : 299 ft
- IATA code : EDM
- Download approach charts


LFRI - La Roche Sur Yon - Les Ajoncs

CURRENT METAR :
  • 221530Z AUTO 20013KT 9999 OVC016 18/14 Q1020 BECMG BKN012

EXPIRED METARs :
  • 221500Z AUTO 20012KT 9999 OVC019 18/13 Q1021 BECMG BKN012
  • 221430Z AUTO 19013KT 9999 OVC019 18/13 Q1021 BECMG BKN012
  • 221400Z AUTO 19015KT 9999 OVC021 18/12 Q1021 NOSIG
  • 221330Z AUTO 19013KT 9999 OVC025 19/12 Q1021 NOSIG
  • 221300Z AUTO 19013KT 9999 OVC027 19/11 Q1021 NOSIG

TAF TAF LFRI
Valid from the 22 at 12:00 until the 23 at 12:00 UTC


221100Z 2212/2312 20011KT 9999 BKN035
BECMG 2216/2218 BKN012
TEMPO 2219/2312 2500 -RADZ OVC003
TEMPO 2311/2312 22015G25KT
No reported NOTAMs for that airfield.
1 SIGMET reported for the Brest FIR (LFRR) :
 
Severe turbulence
LFRR SIGMET 2 VALID 221200/221600 LFPW
LFRR BREST FIR/UIR SEV TURB FCST WI N4745 W00445 - N4915 W00515 - N4930 W00400 - N4800 W00200 - N4745 W00445 SFC/FL060 MOV E 20KT INTSF=



MET'MAP, your aeronautical weather chart ! - Copyright ORBIFLY December 2007 - Disclaimer

ORBIFLY MET'MAP TEAM :

Programming & Development : Alexandra Zaïnal
Concept & Development : Baudouin d'Aumeries
Co-Development & Prog : Marc-Olivier Méhu
Technical & hardware support : Manuel Goepfert

Contact : metmap@orbifly.com




SOURCES & CREDITS :

   NOAA